Time;durP1;ratioP1;P1;durP2;ratioP2;P2;SDS_P1;SDS_P2;PMS_P1;PMS_P2;Temp;Humidity;BMP_temperature;BMP_pressure;BME280_temperature;BME280_humidity;BME280_pressure;Samples;Min_cycle;Max_cycle;Signal;HPM_P1;HPM_P2
2021/10/02 00:01:48;;;;;;;4.43;4.00;;;14.60;99.90;;;;;;5019445;28;20503;-90
2021/10/02 00:33:59;;;;;;;7.00;6.47;;;13.70;99.90;;;;;;5006124;28;20419;-89
2021/10/02 00:36:47;;;;;;;5.53;5.37;;;14.70;99.90;;;;;;5005340;28;20435;-90
2021/10/02 00:44:47;;;;;;;7.37;6.20;;;12.70;99.90;;;;;;5006804;28;20466;-90
2021/10/02 00:47:18;;;;;;;5.20;5.00;;;13.70;99.90;;;;;;4970505;28;20510;-90
2021/10/02 00:49:47;;;;;;;5.90;5.60;;;14.50;99.90;;;;;;4986406;28;20943;-90
2021/10/02 00:52:15;;;;;;;6.10;5.77;;;13.70;99.90;;;;;;4986343;28;20429;-90
2021/10/02 00:54:42;;;;;;;5.93;5.50;;;13.20;99.90;;;;;;4985318;28;20424;-89
2021/10/02 00:57:08;;;;;;;5.20;5.00;;;13.30;99.90;;;;;;4984903;28;20432;-90
2021/10/02 00:59:35;;;;;;;5.00;4.83;;;15.10;99.90;;;;;;5003668;28;20420;-89
2021/10/02 01:02:09;;;;;;;5.33;5.13;;;15.00;99.90;;;;;;4985166;28;20436;-89
2021/10/02 01:04:41;;;;;;;5.60;5.40;;;15.10;99.90;;;;;;4985175;28;20440;-90
2021/10/02 01:07:24;;;;;;;5.33;5.10;;;13.80;99.90;;;;;;4986145;28;20559;-89
2021/10/02 01:10:26;;;;;;;5.03;4.83;;;13.60;99.90;;;;;;4984735;28;20470;-87
2021/10/02 01:13:16;;;;;;;5.53;5.23;;;13.40;99.90;;;;;;4985018;28;20531;-89
2021/10/02 01:15:46;;;;;;;6.23;5.93;;;13.30;99.90;;;;;;5001398;28;20436;-89
2021/10/02 01:18:17;;;;;;;4.93;4.77;;;15.40;99.90;;;;;;4982614;28;20979;-90
2021/10/02 01:21:19;;;;;;;6.23;5.93;;;14.30;99.90;;;;;;4984353;28;20866;-89
2021/10/02 01:23:57;;;;;;;6.10;5.70;;;13.40;99.90;;;;;;4999981;28;20508;-89
2021/10/02 01:27:01;;;;;;;4.93;4.70;;;15.00;99.90;;;;;;4984931;28;20470;-89
2021/10/02 01:29:29;;;;;;;5.43;5.13;;;14.00;99.90;;;;;;4983838;28;20427;-90
2021/10/02 01:49:08;;;;;;;5.83;5.53;;;15.60;99.90;;;;;;4998595;28;20432;-91
2021/10/02 01:51:44;;;;;;;5.57;5.20;;;13.70;99.90;;;;;;4967818;28;20484;-92
2021/10/02 01:54:14;;;;;;;5.70;5.40;;;13.40;99.90;;;;;;4996084;28;20417;-91
2021/10/02 01:56:48;;;;;;;5.53;5.23;;;12.20;99.90;;;;;;5277771;23;20465;-90
2021/10/02 01:59:43;;;;;;;5.53;5.13;;;11.60;99.90;;;;;;4996467;28;20434;-92
2021/10/02 02:02:56;;;;;;;4.93;4.73;;;15.90;99.90;;;;;;4974375;28;20436;-92
2021/10/02 02:05:28;;;;;;;6.90;6.30;;;13.40;99.90;;;;;;4918422;29;20441;-92
2021/10/02 02:10:39;;;;;;;6.37;6.17;;;13.40;99.90;;;;;;5006723;23;20490;-91
2021/10/02 02:13:41;;;;;;;6.67;6.40;;;16.20;99.90;;;;;;4996859;28;20412;-92
2021/10/02 02:16:13;;;;;;;7.23;6.83;;;15.90;99.90;;;;;;4973222;28;20463;-91
2021/10/02 02:19:03;;;;;;;6.20;6.00;;;13.60;99.90;;;;;;4979416;28;20445;-91
2021/10/02 02:21:36;;;;;;;6.43;6.03;;;17.30;99.90;;;;;;4931712;28;20445;-91
2021/10/02 02:24:34;;;;;;;7.23;6.83;;;13.90;99.90;;;;;;4994705;28;20480;-90
2021/10/02 02:27:35;;;;;;;6.80;6.37;;;14.20;99.90;;;;;;4997432;28;20402;-90
2021/10/02 02:30:10;;;;;;;7.10;6.40;;;15.80;99.90;;;;;;4997308;28;20432;-90
2021/10/02 02:35:34;;;;;;;5.67;5.47;;;18.60;99.90;;;;;;4995773;28;20429;-92
2021/10/02 02:38:03;;;;;;;6.70;6.10;;;16.10;99.90;;;;;;4975961;28;20428;-91
2021/10/02 02:40:28;;;;;;;7.43;6.20;;;13.40;99.90;;;;;;4978020;28;20417;-91
2021/10/02 02:43:15;;;;;;;6.23;5.93;;;14.70;99.90;;;;;;4978482;28;20465;-91
2021/10/02 02:46:05;;;;;;;6.40;5.80;;;14.10;99.90;;;;;;4979826;28;20166;-91
2021/10/02 02:49:06;;;;;;;5.30;5.20;;;14.80;99.90;;;;;;4977706;28;20429;-91
2021/10/02 02:52:08;;;;;;;;;;;;;;;;;;;;;
2021/10/02 02:54:52;;;;;;;5.30;4.90;;;13.80;99.90;;;;;;4996785;28;20447;-91
2021/10/02 02:57:48;;;;;;;5.87;5.50;;;13.50;99.90;;;;;;4995214;28;20417;-90
2021/10/02 03:00:56;;;;;;;6.17;5.67;;;14.40;99.90;;;;;;4976021;28;20508;-92
2021/10/02 03:04:01;;;;;;;;;;;;;;;;;;;;;
2021/10/02 03:06:35;;;;;;;5.10;4.90;;;13.20;99.90;;;;;;4853493;29;20441;-91
2021/10/02 03:25:42;;;;;;;5.57;5.17;;;13.60;99.90;;;;;;4070897;23;20761;-90
2021/10/02 03:28:30;;;;;;;5.93;5.50;;;16.90;99.90;;;;;;4997766;28;20405;-91
2021/10/02 03:33:51;;;;;;;4.70;4.50;;;13.60;99.90;;;;;;5126519;23;20488;-92
2021/10/02 03:36:18;;;;;;;5.10;4.80;;;15.70;99.90;;;;;;4978460;28;20473;-91
2021/10/02 03:39:03;;;;;;;4.63;4.40;;;12.20;99.90;;;;;;5065133;23;20490;-90
2021/10/02 03:41:35;;;;;;;5.70;5.40;;;14.20;99.90;;;;;;4974755;28;20517;-91
2021/10/02 03:46:50;;;;;;;5.20;4.90;;;13.80;99.90;;;;;;4965231;28;20426;-90
2021/10/02 03:49:22;;;;;;;5.07;4.70;;;15.50;99.90;;;;;;4972009;28;20929;-90
2021/10/02 03:52:08;;;;;;;5.27;5.07;;;14.20;99.90;;;;;;5043825;23;20462;-91
2021/10/02 03:54:37;;;;;;;5.90;5.40;;;14.90;99.90;;;;;;4974488;28;20383;-90
2021/10/02 03:57:05;;;;;;;5.60;5.30;;;14.00;99.90;;;;;;4974191;28;20418;-92
2021/10/02 03:59:35;;;;;;;4.50;4.40;;;13.90;99.90;;;;;;4955245;28;20461;-91
2021/10/02 04:02:02;;;;;;;5.50;5.20;;;13.20;99.90;;;;;;4956607;29;20430;-91
2021/10/02 04:04:27;;;;;;;6.10;5.80;;;13.70;99.90;;;;;;4958649;28;20474;-91
2021/10/02 04:07:07;;;;;;;6.20;5.80;;;14.10;99.90;;;;;;4974037;28;20426;-91
2021/10/02 04:09:33;;;;;;;6.17;5.67;;;14.80;99.90;;;;;;4952124;29;20178;-91
2021/10/02 04:12:00;;;;;;;6.80;6.40;;;15.10;99.90;;;;;;4970167;28;20427;-91
2021/10/02 04:14:25;;;;;;;6.40;5.90;;;15.20;99.90;;;;;;4954580;29;20419;-89
2021/10/02 04:17:01;;;;;;;5.50;5.30;;;13.00;99.90;;;;;;4957636;28;20426;-89
2021/10/02 04:20:03;;;;;;;5.97;5.57;;;13.60;99.90;;;;;;4960244;28;20198;-91
2021/10/02 04:23:02;;;;;;;6.90;6.37;;;16.40;99.90;;;;;;4954676;28;20831;-92
2021/10/02 04:25:41;;;;;;;6.53;5.67;;;14.90;99.90;;;;;;4956632;28;20411;-93
2021/10/02 04:29:08;;;;;;;5.30;5.10;;;13.10;99.90;;;;;;4954746;29;20427;-91
2021/10/02 04:31:35;;;;;;;6.30;5.97;;;13.70;99.90;;;;;;4871997;29;20442;-91
2021/10/02 04:34:12;;;;;;;6.40;6.10;;;14.90;99.90;;;;;;4957473;29;20418;-92
2021/10/02 04:42:05;;;;;;;5.93;5.33;;;13.60;99.90;;;;;;4951761;23;20496;-91
2021/10/02 04:44:38;;;;;;;5.97;5.67;;;14.70;99.90;;;;;;4920476;29;20424;-91
2021/10/02 04:47:06;;;;;;;6.40;6.10;;;14.30;99.90;;;;;;4919487;29;20444;-90
2021/10/02 04:49:37;;;;;;;7.33;6.57;;;15.60;99.90;;;;;;4945965;29;20420;-90
2021/10/02 04:52:03;;;;;;;6.73;6.23;;;15.10;99.90;;;;;;4950449;28;20417;-92
2021/10/02 04:54:28;;;;;;;7.40;6.90;;;12.20;99.90;;;;;;4919400;29;20439;-92
2021/10/02 04:59:30;;;;;;;5.73;5.50;;;13.70;99.90;;;;;;5359506;23;20238;-91
2021/10/02 05:01:55;;;;;;;5.30;5.00;;;15.20;99.90;;;;;;5034829;28;20431;-90
2021/10/02 05:07:15;;;;;;;5.37;5.10;;;14.90;99.90;;;;;;5035650;28;20207;-89
2021/10/02 05:09:44;;;;;;;5.57;5.27;;;14.10;99.90;;;;;;5030342;28;20437;-90
2021/10/02 05:12:10;;;;;;;6.57;6.17;;;12.80;99.90;;;;;;5034669;28;20410;-90
2021/10/02 05:14:38;;;;;;;5.73;5.23;;;14.80;99.90;;;;;;5035068;28;20442;-91
2021/10/02 05:17:18;;;;;;;5.10;4.90;;;15.80;99.90;;;;;;5036141;28;20481;-91
2021/10/02 05:19:44;;;;;;;5.70;5.50;;;15.00;99.90;;;;;;5053192;28;20415;-90
2021/10/02 05:22:11;;;;;;;6.27;6.07;;;14.40;99.90;;;;;;5050387;28;20490;-89
2021/10/02 05:24:37;;;;;;;5.90;5.60;;;13.70;99.90;;;;;;5037106;28;20449;-91
2021/10/02 05:27:27;;;;;;;6.40;6.10;;;15.20;99.90;;;;;;5036830;28;20627;-91
2021/10/02 05:29:59;;;;;;;5.73;5.23;;;13.80;99.90;;;;;;5043587;28;20426;-91
2021/10/02 05:32:28;;;;;;;5.70;5.40;;;13.60;99.90;;;;;;5030316;28;20437;-91
2021/10/02 05:34:53;;;;;;;6.03;5.77;;;13.50;99.90;;;;;;5031268;28;20423;-91
2021/10/02 05:37:25;;;;;;;5.37;5.17;;;13.60;99.90;;;;;;5026709;28;20441;-92
2021/10/02 05:39:51;;;;;;;6.00;5.60;;;13.40;99.90;;;;;;5026636;28;20244;-90
2021/10/02 05:42:17;;;;;;;6.37;5.90;;;15.00;99.90;;;;;;5027562;28;20855;-89
2021/10/02 05:44:44;;;;;;;5.27;5.03;;;13.50;99.90;;;;;;5021490;28;20419;-89
2021/10/02 05:47:10;;;;;;;6.40;5.80;;;13.60;99.90;;;;;;5021411;28;20184;-89
2021/10/02 05:49:36;;;;;;;5.67;5.47;;;14.30;99.90;;;;;;5020081;28;20791;-91
2021/10/02 05:52:02;;;;;;;7.60;5.50;;;13.60;99.90;;;;;;5021750;28;20172;-90
2021/10/02 05:54:27;;;;;;;5.20;4.90;;;13.60;99.90;;;;;;5018870;28;20172;-89
2021/10/02 05:56:53;;;;;;;6.03;5.53;;;;;;;;;;5022275;28;20782;-90
2021/10/02 05:59:19;;;;;;;6.70;6.20;;;13.60;99.90;;;;;;5039226;28;20219;-89
2021/10/02 06:01:45;;;;;;;6.07;5.80;;;17.70;99.90;;;;;;5022976;28;20415;-91
2021/10/02 06:04:11;;;;;;;6.20;5.80;;;;;;;;;;5020927;28;20546;-91
2021/10/02 06:06:36;;;;;;;5.00;4.90;;;13.40;99.90;;;;;;5021236;28;20560;-90
2021/10/02 06:09:02;;;;;;;6.30;5.90;;;16.10;99.90;;;;;;5039175;28;20407;-92
2021/10/02 06:11:28;;;;;;;7.40;6.90;;;14.90;99.90;;;;;;5039710;28;20176;-91
2021/10/02 06:13:53;;;;;;;6.13;5.67;;;14.30;99.90;;;;;;5023525;28;20183;-90
2021/10/02 06:16:19;;;;;;;6.27;5.80;;;;;;;;;;5021750;28;20176;-90
2021/10/02 06:18:46;;;;;;;6.27;5.67;;;13.60;99.90;;;;;;5040115;28;20168;-89
2021/10/02 06:21:14;;;;;;;4.93;4.73;;;15.90;99.90;;;;;;5031002;28;20430;-89
2021/10/02 06:23:40;;;;;;;4.80;4.67;;;15.40;99.90;;;;;;5002053;28;20467;-89
2021/10/02 06:26:06;;;;;;;4.60;4.33;;;14.60;99.90;;;;;;5018157;28;20404;-89
2021/10/02 06:28:33;;;;;;;5.27;4.97;;;13.20;99.90;;;;;;5002045;28;20423;-91
2021/10/02 06:30:59;;;;;;;5.20;4.90;;;15.10;99.90;;;;;;5000631;28;20445;-89
2021/10/02 06:33:24;;;;;;;6.37;5.80;;;13.00;99.90;;;;;;5002103;28;20419;-90
2021/10/02 06:35:50;;;;;;;5.40;5.10;;;14.30;99.90;;;;;;5002779;28;20592;-90
2021/10/02 06:38:15;;;;;;;4.87;4.67;;;12.90;99.90;;;;;;5019752;28;20176;-91
2021/10/02 06:40:43;;;;;;;5.67;5.37;;;13.50;99.90;;;;;;5017088;28;20204;-91
2021/10/02 06:43:09;;;;;;;5.57;5.27;;;13.10;99.90;;;;;;5023594;28;20695;-91
2021/10/02 06:45:35;;;;;;;4.97;4.80;;;16.20;99.90;;;;;;5039272;28;20410;-88
2021/10/02 06:48:04;;;;;;;5.30;5.00;;;13.80;99.90;;;;;;5038258;28;20488;-92
2021/10/02 06:50:30;;;;;;;5.57;5.37;;;14.20;99.90;;;;;;5021737;28;20257;-91
2021/10/02 06:52:55;;;;;;;4.70;4.60;;;13.90;99.90;;;;;;5025496;28;20487;-91
2021/10/02 06:55:22;;;;;;;4.27;4.00;;;16.40;99.90;;;;;;5022735;28;20438;-92
2021/10/02 06:57:48;;;;;;;4.30;4.20;;;15.10;99.90;;;;;;5024675;28;20172;-90
2021/10/02 07:00:14;;;;;;;4.00;3.80;;;14.00;99.90;;;;;;5020232;28;20819;-90
2021/10/02 07:02:44;;;;;;;3.77;3.50;;;14.10;99.90;;;;;;5022874;28;20466;-90
2021/10/02 07:05:12;;;;;;;4.60;4.30;;;16.80;99.90;;;;;;5023579;28;20191;-91
2021/10/02 07:07:40;;;;;;;3.50;3.20;;;15.80;99.90;;;;;;5021699;28;20809;-93
2021/10/02 07:10:11;;;;;;;3.20;3.20;;;14.40;99.90;;;;;;5023013;28;20495;-92
2021/10/02 07:12:37;;;;;;;2.70;2.70;;;13.00;99.90;;;;;;5007659;28;20933;-90
2021/10/02 07:15:05;;;;;;;2.73;2.73;;;14.00;99.90;;;;;;5040991;28;20447;-90
2021/10/02 07:17:31;;;;;;;3.03;3.03;;;14.10;99.90;;;;;;5036078;28;20507;-91
2021/10/02 07:19:59;;;;;;;2.63;2.63;;;14.50;99.90;;;;;;5022112;28;20432;-92
2021/10/02 07:22:37;;;;;;;2.87;2.77;;;16.20;99.90;;;;;;5018303;28;20411;-90
2021/10/02 07:25:15;;;;;;;3.27;3.00;;;16.60;99.90;;;;;;4324183;28;10000659;-90
2021/10/02 07:27:42;;;;;;;3.30;3.20;;;13.60;99.90;;;;;;5003777;28;20191;-92
2021/10/02 07:30:12;;;;;;;4.37;2.80;;;13.10;99.90;;;;;;5004518;28;20438;-91
2021/10/02 07:32:38;;;;;;;2.13;2.13;;;14.80;99.90;;;;;;5001553;28;20442;-92
2021/10/02 07:35:07;;;;;;;2.40;2.30;;;16.30;99.90;;;;;;5002263;28;20450;-92
2021/10/02 07:37:32;;;;;;;2.20;2.20;;;14.90;99.90;;;;;;5003081;28;20435;-91
2021/10/02 07:40:01;;;;;;;2.20;2.20;;;13.90;99.90;;;;;;5020913;28;20411;-89
2021/10/02 07:42:27;;;;;;;2.80;2.70;;;16.40;99.90;;;;;;5019235;28;20585;-89
2021/10/02 07:45:01;;;;;;;2.43;2.43;;;16.70;99.90;;;;;;5021128;28;20426;-91
2021/10/02 07:47:28;;;;;;;2.50;2.33;;;15.80;99.90;;;;;;4999203;28;20899;-91
2021/10/02 07:49:55;;;;;;;7.20;3.40;;;16.00;99.90;;;;;;5000214;28;20427;-92
2021/10/02 07:52:21;;;;;;;2.80;2.80;;;16.20;99.90;;;;;;5000118;28;20418;-92
2021/10/02 07:54:50;;;;;;;2.43;2.43;;;16.00;99.90;;;;;;4998989;28;20419;-91
2021/10/02 07:57:18;;;;;;;2.97;2.87;;;16.20;99.90;;;;;;5003020;28;20434;-91
2021/10/02 07:59:47;;;;;;;1.93;1.83;;;17.40;99.90;;;;;;5001473;28;20908;-90
2021/10/02 08:02:17;;;;;;;2.10;2.10;;;17.10;99.90;;;;;;5017557;28;20799;-90
2021/10/02 08:04:45;;;;;;;2.00;2.00;;;16.60;99.90;;;;;;4999827;28;20458;-90
2021/10/02 08:07:13;;;;;;;2.60;2.50;;;16.40;99.90;;;;;;5005660;28;20565;-90
2021/10/02 08:09:43;;;;;;;2.60;2.60;;;15.90;99.90;;;;;;4999426;28;20470;-90
2021/10/02 08:12:16;;;;;;;1.90;1.90;;;15.30;99.90;;;;;;5003196;28;20792;-91
2021/10/02 08:14:44;;;;;;;2.50;2.30;;;17.10;99.90;;;;;;5021530;28;20438;-90
2021/10/02 08:17:11;;;;;;;2.23;2.23;;;14.70;99.80;;;;;;5023789;28;20447;-89
2021/10/02 08:19:39;;;;;;;1.77;1.77;;;17.00;99.90;;;;;;5005627;28;20411;-91
2021/10/02 08:22:06;;;;;;;1.80;1.80;;;15.20;98.80;;;;;;5009591;28;20450;-89
2021/10/02 08:24:33;;;;;;;2.00;2.00;;;15.00;97.70;;;;;;5022039;28;20524;-88
2021/10/02 08:27:08;;;;;;;2.80;2.00;;;15.60;97.30;;;;;;5036175;28;20406;-89
2021/10/02 08:29:34;;;;;;;2.27;2.27;;;15.00;97.10;;;;;;5038973;28;20398;-88
2021/10/02 08:32:00;;;;;;;2.80;2.30;;;14.90;97.20;;;;;;5036938;28;20425;-89
2021/10/02 08:34:29;;;;;;;1.80;1.80;;;15.10;97.50;;;;;;5035278;28;20410;-88
2021/10/02 08:36:55;;;;;;;1.97;1.80;;;16.00;98.90;;;;;;5035359;28;20407;-88
2021/10/02 08:39:20;;;;;;;3.40;1.73;;;15.60;95.90;;;;;;5034151;28;20406;-88
2021/10/02 08:41:47;;;;;;;1.53;1.53;;;16.10;94.80;;;;;;5016446;28;20176;-87
2021/10/02 08:44:16;;;;;;;1.83;1.73;;;15.90;94.20;;;;;;5016974;28;20216;-89
2021/10/02 08:46:46;;;;;;;1.60;1.60;;;16.30;94.60;;;;;;5034497;28;20806;-90
2021/10/02 08:49:36;;;;;;;1.57;1.57;;;17.30;91.70;;;;;;5036686;28;20411;-87
2021/10/02 08:52:03;;;;;;;1.33;1.33;;;;;;;;;;5036685;28;20422;-89
2021/10/02 08:54:29;;;;;;;1.50;1.50;;;;;;;;;;5035757;28;20394;-89
2021/10/02 08:56:56;;;;;;;1.60;1.50;;;;;;;;;;5019668;28;20983;-88
2021/10/02 08:59:23;;;;;;;1.47;1.47;;;;;;;;;;5019690;28;20450;-90
2021/10/02 09:01:49;;;;;;;1.40;1.40;;;;;;;;;;5037577;28;20418;-85
2021/10/02 09:04:16;;;;;;;6.40;6.10;;;;;;;;;;5032690;28;20521;-89
2021/10/02 09:06:42;;;;;;;1.67;1.67;;;;;;;;;;5018327;28;20403;-92
2021/10/02 09:09:09;;;;;;;1.70;1.70;;;;;;;;;;5018033;28;20411;-87
2021/10/02 09:11:35;;;;;;;1.60;1.60;;;;;;;;;;5018339;28;20430;-85
2021/10/02 09:14:01;;;;;;;1.60;1.60;;;;;;;;;;5020909;28;20926;-90
2021/10/02 09:16:27;;;;;;;1.53;1.53;;;;;;;;;;5018272;28;20968;-88
2021/10/02 09:18:53;;;;;;;2.30;1.30;;;;;;;;;;5019570;28;20411;-87
2021/10/02 09:21:19;;;;;;;1.30;1.30;;;;;;;;;;5018542;28;20400;-89
2021/10/02 09:23:46;;;;;;;2.10;2.10;;;;;;;;;;5002089;28;20475;-88
2021/10/02 09:26:12;;;;;;;1.90;1.90;;;;;;;;;;5023005;28;20417;-90
2021/10/02 09:28:46;;;;;;;1.87;1.80;;;;;;;;;;5003083;28;20894;-88
2021/10/02 09:31:16;;;;;;;1.43;1.43;;;;;;;;;;5003083;28;20440;-91
2021/10/02 09:33:45;;;;;;;1.90;1.90;;;;;;;;;;5023457;28;20875;-92
2021/10/02 09:36:18;;;;;;;2.00;2.00;;;;;;;;;;5006052;28;20437;-88
2021/10/02 09:38:48;;;;;;;1.90;1.80;;;;;;;;;;5003187;28;20519;-89
2021/10/02 09:41:14;;;;;;;1.90;1.90;;;;;;;;;;5020912;28;20408;-89
2021/10/02 09:43:46;;;;;;;2.00;2.00;;;;;;;;;;5001214;28;20463;-89
2021/10/02 09:46:12;;;;;;;1.93;1.93;;;;;;;;;;5019621;28;20408;-89
2021/10/02 09:48:38;;;;;;;1.80;1.80;;;;;;;;;;5021612;28;20483;-89
2021/10/02 09:51:06;;;;;;;1.93;1.93;;;;;;;;;;5020374;28;20420;-92
2021/10/02 09:53:40;;;;;;;2.03;2.03;;;;;;;;;;5002820;28;20503;-90
2021/10/02 09:56:12;;;;;;;1.93;1.93;;;;;;;;;;5002101;28;20949;-88
2021/10/02 09:58:38;;;;;;;1.97;1.97;;;;;;;;;;5003046;28;20581;-89
2021/10/02 10:01:05;;;;;;;1.60;1.60;;;;;;;;;;5021438;28;20416;-88
2021/10/02 10:03:46;;;;;;;2.07;1.87;;;;;;;;;;5019670;28;20479;-91
2021/10/02 10:06:15;;;;;;;2.33;2.30;;;;;;;;;;5018283;28;20415;-89
2021/10/02 10:08:41;;;;;;;1.67;1.67;;;;;;;;;;5018953;28;20459;-89
2021/10/02 10:11:09;;;;;;;2.20;2.10;;;;;;;;;;5019623;28;20400;-89
2021/10/02 10:13:37;;;;;;;2.57;2.57;;;;;;;;;;5001246;28;20420;-89
2021/10/02 10:16:06;;;;;;;2.03;1.90;;;;;;;;;;5018678;28;20934;-90
2021/10/02 10:18:38;;;;;;;1.77;1.77;;;;;;;;;;5018457;28;20896;-91
2021/10/02 10:21:13;;;;;;;2.37;2.37;;;;;;;;;;5000630;28;20884;-85
2021/10/02 10:23:46;;;;;;;2.23;2.17;;;;;;;;;;5017506;28;21108;-86
2021/10/02 10:26:17;;;;;;;1.83;1.83;;;;;;;;;;5003225;28;20419;-86
2021/10/02 10:28:45;;;;;;;2.00;1.90;;;;;;;;;;4310563;28;10000719;-87
2021/10/02 10:31:11;;;;;;;1.73;1.73;;;;;;;;;;5001227;28;20168;-91
2021/10/02 10:33:38;;;;;;;1.90;1.90;;;;;;;;;;4999097;28;20741;-91
2021/10/02 10:36:04;;;;;;;5.40;2.10;;;;;;;;;;4999659;28;20447;-88
2021/10/02 10:38:35;;;;;;;1.67;1.67;;;;;;;;;;4999015;28;20423;-87
2021/10/02 10:41:01;;;;;;;2.10;2.10;;;;;;;;;;4998280;28;20419;-90
2021/10/02 10:43:27;;;;;;;1.73;1.63;;;;;;;;;;4999374;28;20455;-89
2021/10/02 10:45:53;;;;;;;1.67;1.60;;;;;;;;;;5019631;28;20442;-88
2021/10/02 10:48:28;;;;;;;2.33;2.33;;;;;;;;;;5002676;28;20408;-89
2021/10/02 10:50:57;;;;;;;2.50;2.40;;;;;;;;;;5023958;28;20444;-89
2021/10/02 10:53:24;;;;;;;1.67;1.67;;;;;;;;;;5020872;28;20431;-91
2021/10/02 10:55:54;;;;;;;1.73;1.73;;;;;;;;;;5029495;28;20441;-87
2021/10/02 10:58:21;;;;;;;2.50;2.50;;;;;;;;;;5037838;28;20480;-88
2021/10/02 11:00:47;;;;;;;2.30;2.10;;;;;;;;;;5021280;28;20426;-86
2021/10/02 11:03:36;;;;;;;2.13;2.03;;;;;;;;;;5040181;28;20536;-88
2021/10/02 11:06:05;;;;;;;2.27;2.17;;;;;;;;;;5041785;28;20489;-89
2021/10/02 11:09:02;;;;;;;;;;;;;;;;;;;;;
2021/10/02 11:11:51;;;;;;;2.00;2.00;;;;;;;;;;5039966;28;20505;-87
2021/10/02 11:14:38;;;;;;;2.87;2.77;;;;;;;;;;5043295;28;20403;-87
2021/10/02 11:17:18;;;;;;;;;;;;;;;;;;;;;
2021/10/02 11:19:50;;;;;;;1.60;1.60;;;;;;;;;;5042779;28;20462;-87
2021/10/02 11:22:38;;;;;;;2.20;2.10;;;;;;;;;;5043796;28;20426;-90
2021/10/02 11:25:21;;;;;;;1.50;1.50;;;;;;;;;;5044013;28;20419;-87
2021/10/02 11:27:58;;;;;;;;;;;;;;;;;;;;;
2021/10/02 11:30:27;;;;;;;1.60;1.60;;;;;;;;;;5042535;28;20502;-90
2021/10/02 11:32:53;;;;;;;1.70;1.60;;;;;;;;;;5021668;28;20594;-92
2021/10/02 11:35:21;;;;;;;1.60;1.60;;;;;;;;;;5021969;28;20415;-91
2021/10/02 11:37:52;;;;;;;1.73;1.63;;;;;;;;;;5036624;28;20414;-91
2021/10/02 11:40:36;;;;;;;1.30;1.30;;;;;;;;;;5036567;28;20498;-89
2021/10/02 11:43:22;;;;;;;1.70;1.70;;;;;;;;;;5020050;28;20466;-88
2021/10/02 11:45:48;;;;;;;1.87;1.87;;;;;;;;;;5021218;28;20423;-89
2021/10/02 11:48:18;;;;;;;2.00;1.90;;;;;;;;;;5021815;28;20434;-92
2021/10/02 11:50:45;;;;;;;1.30;1.30;;;;;;;;;;5018819;28;20503;-89
2021/10/02 11:53:11;;;;;;;1.23;1.23;;;;;;;;;;5042206;28;20471;-90
2021/10/02 11:55:43;;;;;;;1.07;1.07;;;;;;;;;;5044478;28;20425;-91
2021/10/02 11:58:09;;;;;;;1.20;1.20;;;;;;;;;;5026252;28;20432;-90
2021/10/02 12:00:45;;;;;;;3.53;1.20;;;;;;;;;;5045100;28;20430;-89
2021/10/02 12:03:15;;;;;;;1.67;1.67;;;;;;;;;;5046731;28;20469;-89
2021/10/02 12:05:42;;;;;;;1.23;1.23;;;;;;;;;;5028955;28;20406;-88
2021/10/02 12:08:12;;;;;;;1.00;1.00;;;;;;;;;;5049535;28;20410;-92
2021/10/02 12:10:53;;;;;;;1.27;1.27;;;;;;;;;;5032167;28;20426;-91
2021/10/02 12:13:22;;;;;;;1.73;1.33;;;;;;;;;;5047746;28;20422;-86
2021/10/02 12:16:05;;;;;;;1.00;1.00;;;;;;;;;;5043661;28;20493;-89
2021/10/02 12:18:51;;;;;;;1.00;1.00;;;;;;;;;;5027244;28;20426;-92
2021/10/02 12:21:31;;;;;;;0.90;0.90;;;;;;;;;;5047128;28;20438;-91
2021/10/02 12:24:07;;;;;;;1.13;1.13;;;;;;;;;;5008045;28;20470;-89
2021/10/02 12:26:52;;;;;;;1.00;1.00;;;;;;;;;;5010494;28;20419;-90
2021/10/02 12:29:48;;;;;;;0.77;0.77;;;;;;;;;;5013978;28;20399;-90
2021/10/02 12:32:42;;;;;;;1.07;1.00;;;;;;;;;;5025985;28;20419;-93
2021/10/02 12:35:14;;;;;;;1.80;1.70;;;;;;;;;;5014464;28;20495;-88
2021/10/02 12:37:45;;;;;;;0.90;0.90;;;;;;;;;;5031609;28;20410;-93
2021/10/02 12:40:13;;;;;;;2.70;0.87;;;;;;;;;;5030189;28;20510;-90
2021/10/02 12:42:51;;;;;;;3.37;0.97;;;;;;;;;;5030558;28;20450;-94
2021/10/02 12:45:29;;;;;;;0.90;0.90;;;;;;;;;;5013470;28;20403;-93
2021/10/02 12:48:04;;;;;;;0.87;0.87;;;;;;;;;;5030309;28;20964;-89
2021/10/02 12:50:51;;;;;;;0.83;0.70;;;;;;;;;;5010516;28;20453;-86
2021/10/02 12:53:29;;;;;;;1.00;0.90;;;;;;;;;;5015377;28;20415;-87
2021/10/02 12:55:55;;;;;;;0.77;0.77;;;;;;;;;;5006952;28;20466;-94
2021/10/02 12:58:24;;;;;;;0.97;0.97;;;;;;;;;;5010770;28;20447;-91
2021/10/02 13:00:56;;;;;;;0.90;0.90;;;;;;;;;;5012180;28;20435;-90
2021/10/02 13:03:25;;;;;;;1.03;0.80;;;;;;;;;;5032300;28;20455;-91
2021/10/02 13:05:59;;;;;;;0.90;0.90;;;;;;;;;;5026869;28;20442;-91
2021/10/02 13:08:25;;;;;;;1.33;1.33;;;;;;;;;;5015764;28;20419;-91
2021/10/02 13:11:08;;;;;;;1.40;1.40;;;20.20;61.90;;;;;;5018122;28;20471;-93
2021/10/02 13:13:39;;;;;;;1.30;1.30;;;19.90;67.10;;;;;;5235317;23;20480;-88
2021/10/02 13:16:05;;;;;;;2.43;1.27;;;20.30;66.00;;;;;;5006173;28;20496;-90
2021/10/02 13:18:38;;;;;;;1.33;1.33;;;18.30;67.70;;;;;;4992660;28;20424;-90
2021/10/02 13:21:07;;;;;;;1.13;1.13;;;19.10;66.40;;;;;;5002802;28;20185;-90
2021/10/02 13:23:40;;;;;;;1.43;1.43;;;20.60;70.30;;;;;;4998661;28;20479;-89
2021/10/02 13:26:22;;;;;;;1.40;1.30;;;22.10;69.70;;;;;;4998631;28;20766;-88
2021/10/02 13:28:53;;;;;;;1.30;1.30;;;19.10;66.70;;;;;;4999776;28;20494;-89
2021/10/02 13:31:24;;;;;;;1.40;1.40;;;19.10;66.90;;;;;;4290880;28;10000749;-89
2021/10/02 13:33:52;;;;;;;1.30;1.30;;;21.70;70.40;;;;;;4959694;28;20461;-90
2021/10/02 13:36:27;;;;;;;1.20;1.20;;;19.00;66.60;;;;;;4961846;28;20472;-89
2021/10/02 13:38:54;;;;;;;1.30;1.30;;;17.30;63.80;;;;;;4962804;28;20517;-89
2021/10/02 13:41:21;;;;;;;1.30;1.20;;;19.00;66.90;;;;;;4975302;28;20409;-88
2021/10/02 13:44:00;;;;;;;1.60;1.60;;;19.60;67.90;;;;;;4981267;28;20484;-92
2021/10/02 13:46:41;;;;;;;1.20;1.20;;;19.10;65.90;;;;;;4972720;28;20413;-92
2021/10/02 13:49:17;;;;;;;1.57;1.57;;;20.20;67.80;;;;;;4992810;23;20504;-92
2021/10/02 13:51:42;;;;;;;1.50;1.50;;;19.70;69.00;;;;;;4951953;28;20440;-86
2021/10/02 13:54:09;;;;;;;5.63;2.70;;;19.30;67.60;;;;;;4960330;28;20430;-91
2021/10/02 13:56:42;;;;;;;1.30;1.30;;;21.60;72.30;;;;;;4944437;29;20951;-91
2021/10/02 13:59:10;;;;;;;1.90;1.90;;;19.60;65.00;;;;;;4963606;28;20445;-87
2021/10/02 14:01:37;;;;;;;1.67;1.67;;;19.50;68.00;;;;;;4962424;28;20414;-91
2021/10/02 14:04:03;;;;;;;1.60;1.57;;;19.30;69.00;;;;;;4960920;28;20466;-88
2021/10/02 14:06:30;;;;;;;2.60;2.57;;;19.10;65.50;;;;;;4962306;28;20543;-90
2021/10/02 14:08:56;;;;;;;2.00;2.00;;;20.40;68.30;;;;;;4943454;29;20548;-92
2021/10/02 14:11:24;;;;;;;1.50;1.40;;;18.90;71.20;;;;;;4960850;28;20773;-92
2021/10/02 14:13:55;;;;;;;2.30;2.20;;;19.80;68.80;;;;;;4947439;29;20183;-93
2021/10/02 14:16:24;;;;;;;1.90;1.90;;;19.90;76.80;;;;;;4945828;29;20437;-88
2021/10/02 14:18:53;;;;;;;2.67;2.47;;;19.40;65.40;;;;;;4950242;28;20442;-87
2021/10/02 14:21:27;;;;;;;2.00;2.00;;;19.40;66.30;;;;;;4952409;28;20445;-93
2021/10/02 14:24:16;;;;;;;1.30;1.30;;;19.30;65.50;;;;;;4952118;29;20470;-93
2021/10/02 14:26:50;;;;;;;1.33;1.20;;;20.00;66.90;;;;;;4973083;28;20411;-94
2021/10/02 14:29:16;;;;;;;1.50;1.50;;;18.90;67.30;;;;;;4940458;29;20442;-88
2021/10/02 14:32:10;;;;;;;1.50;1.50;;;22.00;76.10;;;;;;4972928;28;20470;-93
2021/10/02 14:34:52;;;;;;;3.43;2.20;;;20.40;68.70;;;;;;4955479;29;20434;-91
2021/10/02 14:37:40;;;;;;;1.57;1.43;;;19.00;67.30;;;;;;4954241;29;20501;-91
2021/10/02 14:40:08;;;;;;;1.50;1.50;;;19.20;68.60;;;;;;4951249;29;20513;-91
2021/10/02 14:42:38;;;;;;;1.50;1.50;;;19.30;68.00;;;;;;4971646;28;20429;-89
2021/10/02 14:45:08;;;;;;;1.93;1.83;;;21.30;70.30;;;;;;4971205;28;20426;-92
2021/10/02 14:47:37;;;;;;;1.83;1.70;;;19.40;68.50;;;;;;4954932;29;20429;-90
2021/10/02 14:50:05;;;;;;;1.83;1.83;;;20.20;68.90;;;;;;4957328;28;20513;-91
2021/10/02 14:52:38;;;;;;;1.50;1.40;;;18.70;65.90;;;;;;4952834;28;20422;-92
2021/10/02 14:55:20;;;;;;;1.43;1.43;;;19.00;66.20;;;;;;4955734;29;20505;-91
2021/10/02 14:58:03;;;;;;;1.80;1.80;;;17.00;62.60;;;;;;4968440;28;20552;-90
2021/10/02 15:00:29;;;;;;;2.43;2.33;;;19.10;67.80;;;;;;4955025;29;20434;-90
2021/10/02 15:02:58;;;;;;;2.40;2.30;;;17.30;66.90;;;;;;4955236;28;20470;-90
2021/10/02 15:05:33;;;;;;;2.93;2.83;;;19.60;67.90;;;;;;4952896;29;20185;-91
2021/10/02 15:08:00;;;;;;;2.00;1.90;;;18.90;66.70;;;;;;4970546;28;20441;-92
2021/10/02 15:10:40;;;;;;;1.57;1.57;;;18.90;65.80;;;;;;4953253;29;20432;-91
2021/10/02 15:13:09;;;;;;;1.80;1.80;;;18.80;65.20;;;;;;4952040;28;20437;-93
2021/10/02 15:15:40;;;;;;;1.40;1.40;;;19.00;68.60;;;;;;4953195;29;20430;-91
2021/10/02 15:18:30;;;;;;;2.00;1.60;;;18.70;67.80;;;;;;4951771;29;20460;-94
2021/10/02 15:21:03;;;;;;;1.50;1.50;;;19.80;66.00;;;;;;4968813;28;20438;-92
2021/10/02 15:23:41;;;;;;;1.30;1.30;;;20.70;69.00;;;;;;4952472;28;20509;-90
2021/10/02 15:26:12;;;;;;;1.90;1.90;;;18.80;66.70;;;;;;4936360;29;20505;-90